sensor_id;sensor_type;location;lat;lon;timestamp;P1;durP1;ratioP1;P2;durP2;ratioP2
57565;SDS011;63999;43.882;-0.310;2024-02-23T00:01:53;12.07;;;2.38;;
57565;SDS011;63999;43.882;-0.310;2024-02-23T00:04:21;5.05;;;1.65;;
57565;SDS011;63999;43.882;-0.310;2024-02-23T00:06:48;7.55;;;2.05;;
57565;SDS011;63999;43.882;-0.310;2024-02-23T00:09:15;8.32;;;1.20;;
57565;SDS011;63999;43.882;-0.310;2024-02-23T00:11:42;5.88;;;0.90;;
57565;SDS011;63999;43.882;-0.310;2024-02-23T00:14:15;8.18;;;1.00;;
57565;SDS011;63999;43.882;-0.310;2024-02-23T00:16:45;1.75;;;1.02;;
57565;SDS011;63999;43.882;-0.310;2024-02-23T00:19:13;4.35;;;0.70;;
57565;SDS011;63999;43.882;-0.310;2024-02-23T00:21:40;5.97;;;1.00;;
57565;SDS011;63999;43.882;-0.310;2024-02-23T00:24:08;3.97;;;0.63;;
57565;SDS011;63999;43.882;-0.310;2024-02-23T00:26:36;2.00;;;0.50;;
57565;SDS011;63999;43.882;-0.310;2024-02-23T00:29:04;1.38;;;0.52;;
57565;SDS011;63999;43.882;-0.310;2024-02-23T00:31:31;2.30;;;0.40;;
57565;SDS011;63999;43.882;-0.310;2024-02-23T00:33:58;0.52;;;0.52;;
57565;SDS011;63999;43.882;-0.310;2024-02-23T00:36:29;0.98;;;0.32;;
57565;SDS011;63999;43.882;-0.310;2024-02-23T00:38:56;1.33;;;0.43;;
57565;SDS011;63999;43.882;-0.310;2024-02-23T00:41:23;2.45;;;0.40;;
57565;SDS011;63999;43.882;-0.310;2024-02-23T00:43:50;2.35;;;0.60;;
57565;SDS011;63999;43.882;-0.310;2024-02-23T00:46:18;1.75;;;0.40;;
57565;SDS011;63999;43.882;-0.310;2024-02-23T00:48:45;2.50;;;0.50;;
57565;SDS011;63999;43.882;-0.310;2024-02-23T00:51:12;3.00;;;0.63;;
57565;SDS011;63999;43.882;-0.310;2024-02-23T00:53:40;1.33;;;0.40;;
57565;SDS011;63999;43.882;-0.310;2024-02-23T00:56:07;1.75;;;0.45;;
57565;SDS011;63999;43.882;-0.310;2024-02-23T00:58:34;0.52;;;0.30;;
57565;SDS011;63999;43.882;-0.310;2024-02-23T01:01:01;1.40;;;0.45;;
57565;SDS011;63999;43.882;-0.310;2024-02-23T01:03:29;1.52;;;0.40;;
57565;SDS011;63999;43.882;-0.310;2024-02-23T01:05:56;0.63;;;0.30;;
57565;SDS011;63999;43.882;-0.310;2024-02-23T01:08:23;2.45;;;0.57;;
57565;SDS011;63999;43.882;-0.310;2024-02-23T01:10:51;0.75;;;0.40;;
57565;SDS011;63999;43.882;-0.310;2024-02-23T01:13:18;2.88;;;0.50;;
57565;SDS011;63999;43.882;-0.310;2024-02-23T01:15:45;0.35;;;0.20;;
57565;SDS011;63999;43.882;-0.310;2024-02-23T01:18:12;3.70;;;0.68;;
57565;SDS011;63999;43.882;-0.310;2024-02-23T01:20:40;0.88;;;0.30;;
57565;SDS011;63999;43.882;-0.310;2024-02-23T01:23:07;0.85;;;0.22;;
57565;SDS011;63999;43.882;-0.310;2024-02-23T01:25:35;1.15;;;0.43;;
57565;SDS011;63999;43.882;-0.310;2024-02-23T01:28:03;2.35;;;0.63;;
57565;SDS011;63999;43.882;-0.310;2024-02-23T01:30:30;0.17;;;0.17;;
57565;SDS011;63999;43.882;-0.310;2024-02-23T01:32:57;2.50;;;0.60;;
57565;SDS011;63999;43.882;-0.310;2024-02-23T01:35:25;1.58;;;0.30;;
57565;SDS011;63999;43.882;-0.310;2024-02-23T01:37:53;0.77;;;0.50;;
57565;SDS011;63999;43.882;-0.310;2024-02-23T01:40:20;2.88;;;0.50;;
57565;SDS011;63999;43.882;-0.310;2024-02-23T01:42:47;2.85;;;0.40;;
57565;SDS011;63999;43.882;-0.310;2024-02-23T01:45:14;2.22;;;0.75;;
57565;SDS011;63999;43.882;-0.310;2024-02-23T01:47:41;2.70;;;0.68;;
57565;SDS011;63999;43.882;-0.310;2024-02-23T01:50:10;2.03;;;0.43;;
57565;SDS011;63999;43.882;-0.310;2024-02-23T01:52:39;1.27;;;0.47;;
57565;SDS011;63999;43.882;-0.310;2024-02-23T01:55:07;1.45;;;0.43;;
57565;SDS011;63999;43.882;-0.310;2024-02-23T01:57:34;1.58;;;0.30;;
57565;SDS011;63999;43.882;-0.310;2024-02-23T02:00:16;1.05;;;0.45;;
57565;SDS011;63999;43.882;-0.310;2024-02-23T02:02:45;0.35;;;0.25;;
57565;SDS011;63999;43.882;-0.310;2024-02-23T02:05:14;0.32;;;0.30;;
57565;SDS011;63999;43.882;-0.310;2024-02-23T02:07:41;1.50;;;0.45;;
57565;SDS011;63999;43.882;-0.310;2024-02-23T02:10:09;0.68;;;0.22;;
57565;SDS011;63999;43.882;-0.310;2024-02-23T02:12:37;3.65;;;0.43;;
57565;SDS011;63999;43.882;-0.310;2024-02-23T02:15:05;1.10;;;0.35;;
57565;SDS011;63999;43.882;-0.310;2024-02-23T02:17:33;0.75;;;0.20;;
57565;SDS011;63999;43.882;-0.310;2024-02-23T02:20:04;0.20;;;0.20;;
57565;SDS011;63999;43.882;-0.310;2024-02-23T02:22:32;0.10;;;0.10;;
57565;SDS011;63999;43.882;-0.310;2024-02-23T02:25:00;0.95;;;0.20;;
57565;SDS011;63999;43.882;-0.310;2024-02-23T02:27:27;0.55;;;0.20;;
57565;SDS011;63999;43.882;-0.310;2024-02-23T02:29:55;3.10;;;0.15;;
57565;SDS011;63999;43.882;-0.310;2024-02-23T02:32:22;0.38;;;0.10;;
57565;SDS011;63999;43.882;-0.310;2024-02-23T02:34:53;0.10;;;0.10;;
57565;SDS011;63999;43.882;-0.310;2024-02-23T02:37:21;0.25;;;0.25;;
57565;SDS011;63999;43.882;-0.310;2024-02-23T02:39:48;0.10;;;0.10;;
57565;SDS011;63999;43.882;-0.310;2024-02-23T02:42:16;0.10;;;0.10;;
57565;SDS011;63999;43.882;-0.310;2024-02-23T02:44:43;0.98;;;0.25;;
57565;SDS011;63999;43.882;-0.310;2024-02-23T02:47:10;0.43;;;0.20;;
57565;SDS011;63999;43.882;-0.310;2024-02-23T02:49:39;0.17;;;0.10;;
57565;SDS011;63999;43.882;-0.310;2024-02-23T02:52:07;0.55;;;0.20;;
57565;SDS011;63999;43.882;-0.310;2024-02-23T02:54:35;1.45;;;0.30;;
57565;SDS011;63999;43.882;-0.310;2024-02-23T02:57:02;0.30;;;0.20;;
57565;SDS011;63999;43.882;-0.310;2024-02-23T02:59:33;0.15;;;0.10;;
57565;SDS011;63999;43.882;-0.310;2024-02-23T03:02:02;0.90;;;0.15;;
57565;SDS011;63999;43.882;-0.310;2024-02-23T03:04:29;0.20;;;0.20;;
57565;SDS011;63999;43.882;-0.310;2024-02-23T03:06:56;0.40;;;0.40;;
57565;SDS011;63999;43.882;-0.310;2024-02-23T03:09:23;0.10;;;0.10;;
57565;SDS011;63999;43.882;-0.310;2024-02-23T03:11:50;0.10;;;0.10;;
57565;SDS011;63999;43.882;-0.310;2024-02-23T03:14:18;0.10;;;0.10;;
57565;SDS011;63999;43.882;-0.310;2024-02-23T03:16:48;0.77;;;0.50;;
57565;SDS011;63999;43.882;-0.310;2024-02-23T03:19:16;0.10;;;0.10;;
57565;SDS011;63999;43.882;-0.310;2024-02-23T03:21:43;0.10;;;0.10;;
57565;SDS011;63999;43.882;-0.310;2024-02-23T03:24:10;0.10;;;0.10;;
57565;SDS011;63999;43.882;-0.310;2024-02-23T03:26:37;1.20;;;0.30;;
57565;SDS011;63999;43.882;-0.310;2024-02-23T03:29:05;4.10;;;0.25;;
57565;SDS011;63999;43.882;-0.310;2024-02-23T03:31:33;0.10;;;0.10;;
57565;SDS011;63999;43.882;-0.310;2024-02-23T03:34:01;0.20;;;0.20;;
57565;SDS011;63999;43.882;-0.310;2024-02-23T03:36:29;0.75;;;0.10;;
57565;SDS011;63999;43.882;-0.310;2024-02-23T03:38:56;1.00;;;0.40;;
57565;SDS011;63999;43.882;-0.310;2024-02-23T03:41:23;0.25;;;0.15;;
57565;SDS011;63999;43.882;-0.310;2024-02-23T03:43:51;0.10;;;0.10;;
57565;SDS011;63999;43.882;-0.310;2024-02-23T03:46:18;0.10;;;0.10;;
57565;SDS011;63999;43.882;-0.310;2024-02-23T03:48:46;2.63;;;0.35;;
57565;SDS011;63999;43.882;-0.310;2024-02-23T03:51:14;0.15;;;0.15;;
57565;SDS011;63999;43.882;-0.310;2024-02-23T03:53:41;0.55;;;0.17;;
57565;SDS011;63999;43.882;-0.310;2024-02-23T03:56:09;1.95;;;0.20;;
57565;SDS011;63999;43.882;-0.310;2024-02-23T03:58:36;1.17;;;0.20;;
57565;SDS011;63999;43.882;-0.310;2024-02-23T04:01:03;2.38;;;0.47;;
57565;SDS011;63999;43.882;-0.310;2024-02-23T04:03:31;0.20;;;0.20;;
57565;SDS011;63999;43.882;-0.310;2024-02-23T04:05:58;0.80;;;0.30;;
57565;SDS011;63999;43.882;-0.310;2024-02-23T04:08:25;1.90;;;0.60;;
57565;SDS011;63999;43.882;-0.310;2024-02-23T04:10:52;0.43;;;0.20;;
57565;SDS011;63999;43.882;-0.310;2024-02-23T04:13:20;0.45;;;0.10;;
57565;SDS011;63999;43.882;-0.310;2024-02-23T04:15:48;0.60;;;0.20;;
57565;SDS011;63999;43.882;-0.310;2024-02-23T04:18:15;9.52;;;1.15;;
57565;SDS011;63999;43.882;-0.310;2024-02-23T04:20:42;0.15;;;0.10;;
57565;SDS011;63999;43.882;-0.310;2024-02-23T04:23:10;0.73;;;0.20;;
57565;SDS011;63999;43.882;-0.310;2024-02-23T04:25:37;0.10;;;0.10;;
57565;SDS011;63999;43.882;-0.310;2024-02-23T04:28:04;0.65;;;0.20;;
57565;SDS011;63999;43.882;-0.310;2024-02-23T04:30:31;2.63;;;0.40;;
57565;SDS011;63999;43.882;-0.310;2024-02-23T04:32:58;0.22;;;0.20;;
57565;SDS011;63999;43.882;-0.310;2024-02-23T04:35:26;2.08;;;0.35;;
57565;SDS011;63999;43.882;-0.310;2024-02-23T04:37:53;0.22;;;0.22;;
57565;SDS011;63999;43.882;-0.310;2024-02-23T04:40:20;0.63;;;0.20;;
57565;SDS011;63999;43.882;-0.310;2024-02-23T04:42:47;0.73;;;0.28;;
57565;SDS011;63999;43.882;-0.310;2024-02-23T04:45:15;1.33;;;0.30;;
57565;SDS011;63999;43.882;-0.310;2024-02-23T04:47:42;0.52;;;0.30;;
57565;SDS011;63999;43.882;-0.310;2024-02-23T04:50:09;0.20;;;0.10;;
57565;SDS011;63999;43.882;-0.310;2024-02-23T04:52:36;3.45;;;0.30;;
57565;SDS011;63999;43.882;-0.310;2024-02-23T04:55:04;2.72;;;0.20;;
57565;SDS011;63999;43.882;-0.310;2024-02-23T04:57:31;1.33;;;0.10;;
57565;SDS011;63999;43.882;-0.310;2024-02-23T04:59:59;0.52;;;0.10;;
57565;SDS011;63999;43.882;-0.310;2024-02-23T05:02:26;0.10;;;0.10;;
57565;SDS011;63999;43.882;-0.310;2024-02-23T05:04:56;0.30;;;0.10;;
57565;SDS011;63999;43.882;-0.310;2024-02-23T05:07:23;0.82;;;0.20;;
57565;SDS011;63999;43.882;-0.310;2024-02-23T05:09:51;0.88;;;0.20;;
57565;SDS011;63999;43.882;-0.310;2024-02-23T05:12:18;0.10;;;0.10;;
57565;SDS011;63999;43.882;-0.310;2024-02-23T05:14:45;0.55;;;0.30;;
57565;SDS011;63999;43.882;-0.310;2024-02-23T05:17:12;2.85;;;0.50;;
57565;SDS011;63999;43.882;-0.310;2024-02-23T05:19:40;0.40;;;0.20;;
57565;SDS011;63999;43.882;-0.310;2024-02-23T05:22:07;0.20;;;0.20;;
57565;SDS011;63999;43.882;-0.310;2024-02-23T05:24:35;0.10;;;0.10;;
57565;SDS011;63999;43.882;-0.310;2024-02-23T05:27:02;0.10;;;0.10;;
57565;SDS011;63999;43.882;-0.310;2024-02-23T05:29:29;0.40;;;0.28;;
57565;SDS011;63999;43.882;-0.310;2024-02-23T05:31:57;0.10;;;0.10;;
57565;SDS011;63999;43.882;-0.310;2024-02-23T05:34:24;2.70;;;0.20;;
57565;SDS011;63999;43.882;-0.310;2024-02-23T05:36:51;2.20;;;0.20;;
57565;SDS011;63999;43.882;-0.310;2024-02-23T05:39:19;0.10;;;0.10;;
57565;SDS011;63999;43.882;-0.310;2024-02-23T05:41:46;1.67;;;0.47;;
57565;SDS011;63999;43.882;-0.310;2024-02-23T05:44:14;0.10;;;0.10;;
57565;SDS011;63999;43.882;-0.310;2024-02-23T05:46:42;0.50;;;0.10;;
57565;SDS011;63999;43.882;-0.310;2024-02-23T05:49:10;3.13;;;0.30;;
57565;SDS011;63999;43.882;-0.310;2024-02-23T05:51:38;1.35;;;0.10;;
57565;SDS011;63999;43.882;-0.310;2024-02-23T05:54:06;0.30;;;0.17;;
57565;SDS011;63999;43.882;-0.310;2024-02-23T05:56:33;0.63;;;0.10;;
57565;SDS011;63999;43.882;-0.310;2024-02-23T05:59:00;3.72;;;0.28;;
57565;SDS011;63999;43.882;-0.310;2024-02-23T06:01:28;0.10;;;0.10;;
57565;SDS011;63999;43.882;-0.310;2024-02-23T06:03:55;0.10;;;0.10;;
57565;SDS011;63999;43.882;-0.310;2024-02-23T06:06:22;0.17;;;0.15;;
57565;SDS011;63999;43.882;-0.310;2024-02-23T06:08:50;1.58;;;0.10;;
57565;SDS011;63999;43.882;-0.310;2024-02-23T06:11:17;0.70;;;0.25;;
57565;SDS011;63999;43.882;-0.310;2024-02-23T06:13:44;0.40;;;0.20;;
57565;SDS011;63999;43.882;-0.310;2024-02-23T06:16:12;1.45;;;0.30;;
57565;SDS011;63999;43.882;-0.310;2024-02-23T06:18:40;0.17;;;0.10;;
57565;SDS011;63999;43.882;-0.310;2024-02-23T06:21:14;1.75;;;0.22;;
57565;SDS011;63999;43.882;-0.310;2024-02-23T06:23:42;1.17;;;0.20;;
57565;SDS011;63999;43.882;-0.310;2024-02-23T06:26:10;0.38;;;0.17;;
57565;SDS011;63999;43.882;-0.310;2024-02-23T06:28:38;0.10;;;0.10;;
57565;SDS011;63999;43.882;-0.310;2024-02-23T06:31:08;0.13;;;0.13;;
57565;SDS011;63999;43.882;-0.310;2024-02-23T06:33:36;2.45;;;0.35;;
57565;SDS011;63999;43.882;-0.310;2024-02-23T06:36:03;0.28;;;0.28;;
57565;SDS011;63999;43.882;-0.310;2024-02-23T06:38:31;0.75;;;0.10;;
57565;SDS011;63999;43.882;-0.310;2024-02-23T06:40:58;0.47;;;0.20;;
57565;SDS011;63999;43.882;-0.310;2024-02-23T06:43:26;1.58;;;0.17;;
57565;SDS011;63999;43.882;-0.310;2024-02-23T06:45:53;0.45;;;0.30;;
57565;SDS011;63999;43.882;-0.310;2024-02-23T06:48:20;0.52;;;0.17;;
57565;SDS011;63999;43.882;-0.310;2024-02-23T06:50:47;0.35;;;0.25;;
57565;SDS011;63999;43.882;-0.310;2024-02-23T06:53:15;0.50;;;0.20;;
57565;SDS011;63999;43.882;-0.310;2024-02-23T06:55:42;0.32;;;0.20;;
57565;SDS011;63999;43.882;-0.310;2024-02-23T06:58:10;0.10;;;0.10;;
57565;SDS011;63999;43.882;-0.310;2024-02-23T07:00:40;1.13;;;0.22;;
57565;SDS011;63999;43.882;-0.310;2024-02-23T07:03:07;0.32;;;0.20;;
57565;SDS011;63999;43.882;-0.310;2024-02-23T07:05:35;0.22;;;0.20;;
57565;SDS011;63999;43.882;-0.310;2024-02-23T07:08:03;0.20;;;0.20;;
57565;SDS011;63999;43.882;-0.310;2024-02-23T07:10:30;1.42;;;0.50;;
57565;SDS011;63999;43.882;-0.310;2024-02-23T07:12:58;10.63;;;1.05;;
57565;SDS011;63999;43.882;-0.310;2024-02-23T07:15:25;0.47;;;0.30;;
57565;SDS011;63999;43.882;-0.310;2024-02-23T07:17:52;1.05;;;0.30;;
57565;SDS011;63999;43.882;-0.310;2024-02-23T07:20:20;0.70;;;0.30;;
57565;SDS011;63999;43.882;-0.310;2024-02-23T07:22:47;1.13;;;0.28;;
57565;SDS011;63999;43.882;-0.310;2024-02-23T07:25:17;0.63;;;0.30;;
57565;SDS011;63999;43.882;-0.310;2024-02-23T07:27:47;0.25;;;0.20;;
57565;SDS011;63999;43.882;-0.310;2024-02-23T07:30:18;0.38;;;0.15;;
57565;SDS011;63999;43.882;-0.310;2024-02-23T07:32:45;0.70;;;0.15;;
57565;SDS011;63999;43.882;-0.310;2024-02-23T07:35:18;1.30;;;0.40;;
57565;SDS011;63999;43.882;-0.310;2024-02-23T07:37:46;0.40;;;0.22;;
57565;SDS011;63999;43.882;-0.310;2024-02-23T07:40:13;0.45;;;0.20;;
57565;SDS011;63999;43.882;-0.310;2024-02-23T07:42:45;0.20;;;0.20;;
57565;SDS011;63999;43.882;-0.310;2024-02-23T07:45:12;0.82;;;0.30;;
57565;SDS011;63999;43.882;-0.310;2024-02-23T07:47:39;2.55;;;0.52;;
57565;SDS011;63999;43.882;-0.310;2024-02-23T07:50:07;1.92;;;0.30;;
57565;SDS011;63999;43.882;-0.310;2024-02-23T07:52:35;0.50;;;0.35;;
57565;SDS011;63999;43.882;-0.310;2024-02-23T07:55:03;0.10;;;0.10;;
57565;SDS011;63999;43.882;-0.310;2024-02-23T07:57:31;0.98;;;0.30;;
57565;SDS011;63999;43.882;-0.310;2024-02-23T07:59:59;0.43;;;0.30;;
57565;SDS011;63999;43.882;-0.310;2024-02-23T08:02:27;2.28;;;0.40;;
57565;SDS011;63999;43.882;-0.310;2024-02-23T08:04:54;0.28;;;0.22;;
57565;SDS011;63999;43.882;-0.310;2024-02-23T08:07:22;0.55;;;0.20;;
57565;SDS011;63999;43.882;-0.310;2024-02-23T08:09:49;0.38;;;0.20;;
57565;SDS011;63999;43.882;-0.310;2024-02-23T08:12:16;0.43;;;0.28;;
57565;SDS011;63999;43.882;-0.310;2024-02-23T08:14:44;0.82;;;0.25;;
57565;SDS011;63999;43.882;-0.310;2024-02-23T08:17:12;0.65;;;0.30;;
57565;SDS011;63999;43.882;-0.310;2024-02-23T08:19:45;0.25;;;0.25;;
57565;SDS011;63999;43.882;-0.310;2024-02-23T08:22:12;0.47;;;0.38;;
57565;SDS011;63999;43.882;-0.310;2024-02-23T08:24:42;0.35;;;0.35;;
57565;SDS011;63999;43.882;-0.310;2024-02-23T08:27:09;0.98;;;0.25;;
57565;SDS011;63999;43.882;-0.310;2024-02-23T08:29:39;0.88;;;0.45;;
57565;SDS011;63999;43.882;-0.310;2024-02-23T08:32:08;1.13;;;0.50;;
57565;SDS011;63999;43.882;-0.310;2024-02-23T08:34:38;0.68;;;0.20;;
57565;SDS011;63999;43.882;-0.310;2024-02-23T08:37:06;0.10;;;0.10;;
57565;SDS011;63999;43.882;-0.310;2024-02-23T08:39:33;0.30;;;0.20;;
57565;SDS011;63999;43.882;-0.310;2024-02-23T08:42:04;2.45;;;0.40;;
57565;SDS011;63999;43.882;-0.310;2024-02-23T08:44:31;0.30;;;0.30;;
57565;SDS011;63999;43.882;-0.310;2024-02-23T08:46:58;0.10;;;0.10;;
57565;SDS011;63999;43.882;-0.310;2024-02-23T08:49:26;0.20;;;0.20;;
57565;SDS011;63999;43.882;-0.310;2024-02-23T08:51:54;0.20;;;0.17;;
57565;SDS011;63999;43.882;-0.310;2024-02-23T08:54:24;3.20;;;0.50;;
57565;SDS011;63999;43.882;-0.310;2024-02-23T08:56:52;0.73;;;0.40;;
57565;SDS011;63999;43.882;-0.310;2024-02-23T08:59:19;0.10;;;0.10;;
57565;SDS011;63999;43.882;-0.310;2024-02-23T09:01:46;0.57;;;0.20;;
57565;SDS011;63999;43.882;-0.310;2024-02-23T09:04:13;2.10;;;0.32;;
57565;SDS011;63999;43.882;-0.310;2024-02-23T09:06:41;0.35;;;0.20;;
57565;SDS011;63999;43.882;-0.310;2024-02-23T09:09:08;0.82;;;0.40;;
57565;SDS011;63999;43.882;-0.310;2024-02-23T09:11:36;0.60;;;0.20;;
57565;SDS011;63999;43.882;-0.310;2024-02-23T09:16:38;0.35;;;0.32;;
57565;SDS011;63999;43.882;-0.310;2024-02-23T09:19:06;0.70;;;0.30;;
57565;SDS011;63999;43.882;-0.310;2024-02-23T09:21:33;0.20;;;0.10;;
57565;SDS011;63999;43.882;-0.310;2024-02-23T09:24:01;0.43;;;0.20;;
57565;SDS011;63999;43.882;-0.310;2024-02-23T09:26:28;1.20;;;0.20;;
57565;SDS011;63999;43.882;-0.310;2024-02-23T09:28:55;0.30;;;0.25;;
57565;SDS011;63999;43.882;-0.310;2024-02-23T09:31:22;1.50;;;0.35;;
57565;SDS011;63999;43.882;-0.310;2024-02-23T09:33:50;2.50;;;0.20;;
57565;SDS011;63999;43.882;-0.310;2024-02-23T09:36:18;0.52;;;0.20;;
57565;SDS011;63999;43.882;-0.310;2024-02-23T09:38:45;0.60;;;0.25;;
57565;SDS011;63999;43.882;-0.310;2024-02-23T09:41:21;1.65;;;0.40;;
57565;SDS011;63999;43.882;-0.310;2024-02-23T09:43:50;0.60;;;0.10;;
57565;SDS011;63999;43.882;-0.310;2024-02-23T09:46:18;0.45;;;0.30;;
57565;SDS011;63999;43.882;-0.310;2024-02-23T09:48:45;0.82;;;0.10;;
57565;SDS011;63999;43.882;-0.310;2024-02-23T09:51:15;0.77;;;0.20;;
57565;SDS011;63999;43.882;-0.310;2024-02-23T09:53:43;1.10;;;0.30;;
57565;SDS011;63999;43.882;-0.310;2024-02-23T09:56:11;0.57;;;0.10;;
57565;SDS011;63999;43.882;-0.310;2024-02-23T09:58:39;0.45;;;0.20;;
57565;SDS011;63999;43.882;-0.310;2024-02-23T10:01:08;0.95;;;0.30;;
57565;SDS011;63999;43.882;-0.310;2024-02-23T10:03:38;3.22;;;0.77;;
57565;SDS011;63999;43.882;-0.310;2024-02-23T10:06:08;0.20;;;0.20;;
57565;SDS011;63999;43.882;-0.310;2024-02-23T10:08:36;0.73;;;0.28;;
57565;SDS011;63999;43.882;-0.310;2024-02-23T10:11:03;1.50;;;0.35;;
57565;SDS011;63999;43.882;-0.310;2024-02-23T10:13:32;2.50;;;0.30;;
57565;SDS011;63999;43.882;-0.310;2024-02-23T10:15:59;0.45;;;0.35;;
57565;SDS011;63999;43.882;-0.310;2024-02-23T10:18:40;2.35;;;0.40;;
57565;SDS011;63999;43.882;-0.310;2024-02-23T10:21:08;0.20;;;0.20;;
57565;SDS011;63999;43.882;-0.310;2024-02-23T10:23:35;1.48;;;0.20;;
57565;SDS011;63999;43.882;-0.310;2024-02-23T10:26:07;0.10;;;0.10;;
57565;SDS011;63999;43.882;-0.310;2024-02-23T10:28:36;0.40;;;0.20;;
57565;SDS011;63999;43.882;-0.310;2024-02-23T10:31:06;0.32;;;0.32;;
57565;SDS011;63999;43.882;-0.310;2024-02-23T10:33:38;0.98;;;0.38;;
57565;SDS011;63999;43.882;-0.310;2024-02-23T10:36:07;0.17;;;0.10;;
57565;SDS011;63999;43.882;-0.310;2024-02-23T10:38:37;0.10;;;0.10;;
57565;SDS011;63999;43.882;-0.310;2024-02-23T10:41:06;4.30;;;0.30;;
57565;SDS011;63999;43.882;-0.310;2024-02-23T10:43:44;0.20;;;0.20;;
57565;SDS011;63999;43.882;-0.310;2024-02-23T10:46:13;0.20;;;0.13;;
57565;SDS011;63999;43.882;-0.310;2024-02-23T10:48:42;0.43;;;0.28;;
57565;SDS011;63999;43.882;-0.310;2024-02-23T10:51:13;0.10;;;0.10;;
57565;SDS011;63999;43.882;-0.310;2024-02-23T10:53:46;0.88;;;0.13;;
57565;SDS011;63999;43.882;-0.310;2024-02-23T10:56:15;1.85;;;0.63;;
57565;SDS011;63999;43.882;-0.310;2024-02-23T10:58:43;0.63;;;0.30;;
57565;SDS011;63999;43.882;-0.310;2024-02-23T11:01:11;0.17;;;0.10;;
57565;SDS011;63999;43.882;-0.310;2024-02-23T11:03:41;0.38;;;0.30;;
57565;SDS011;63999;43.882;-0.310;2024-02-23T11:06:13;0.15;;;0.15;;
57565;SDS011;63999;43.882;-0.310;2024-02-23T11:08:48;0.55;;;0.20;;
57565;SDS011;63999;43.882;-0.310;2024-02-23T11:11:18;0.17;;;0.17;;
57565;SDS011;63999;43.882;-0.310;2024-02-23T11:13:46;0.85;;;0.22;;
57565;SDS011;63999;43.882;-0.310;2024-02-23T11:16:21;1.23;;;0.47;;
57565;SDS011;63999;43.882;-0.310;2024-02-23T11:18:50;0.52;;;0.20;;
57565;SDS011;63999;43.882;-0.310;2024-02-23T11:21:35;2.30;;;0.30;;
57565;SDS011;63999;43.882;-0.310;2024-02-23T11:24:04;0.63;;;0.30;;
57565;SDS011;63999;43.882;-0.310;2024-02-23T11:26:32;0.52;;;0.20;;
57565;SDS011;63999;43.882;-0.310;2024-02-23T11:29:11;0.32;;;0.20;;
57565;SDS011;63999;43.882;-0.310;2024-02-23T11:31:45;0.98;;;0.10;;
57565;SDS011;63999;43.882;-0.310;2024-02-23T11:34:13;0.20;;;0.20;;
57565;SDS011;63999;43.882;-0.310;2024-02-23T11:36:51;2.30;;;0.20;;
57565;SDS011;63999;43.882;-0.310;2024-02-23T11:39:20;0.35;;;0.10;;
57565;SDS011;63999;43.882;-0.310;2024-02-23T11:41:48;1.65;;;0.30;;
57565;SDS011;63999;43.882;-0.310;2024-02-23T11:44:17;0.30;;;0.30;;
57565;SDS011;63999;43.882;-0.310;2024-02-23T11:46:46;0.10;;;0.10;;
57565;SDS011;63999;43.882;-0.310;2024-02-23T11:49:14;0.55;;;0.20;;
57565;SDS011;63999;43.882;-0.310;2024-02-23T11:51:43;0.35;;;0.10;;
57565;SDS011;63999;43.882;-0.310;2024-02-23T11:54:11;0.10;;;0.10;;
57565;SDS011;63999;43.882;-0.310;2024-02-23T11:56:42;0.10;;;0.10;;
57565;SDS011;63999;43.882;-0.310;2024-02-23T11:59:09;0.32;;;0.15;;
57565;SDS011;63999;43.882;-0.310;2024-02-23T12:01:37;0.20;;;0.10;;
57565;SDS011;63999;43.882;-0.310;2024-02-23T12:04:04;0.20;;;0.10;;
57565;SDS011;63999;43.882;-0.310;2024-02-23T12:06:32;0.98;;;0.30;;
57565;SDS011;63999;43.882;-0.310;2024-02-23T12:09:01;0.47;;;0.30;;
57565;SDS011;63999;43.882;-0.310;2024-02-23T12:11:29;0.10;;;0.10;;
57565;SDS011;63999;43.882;-0.310;2024-02-23T12:13:57;0.10;;;0.10;;
57565;SDS011;63999;43.882;-0.310;2024-02-23T12:16:26;0.20;;;0.10;;
57565;SDS011;63999;43.882;-0.310;2024-02-23T12:18:53;1.23;;;0.50;;
57565;SDS011;63999;43.882;-0.310;2024-02-23T12:21:24;0.57;;;0.20;;
57565;SDS011;63999;43.882;-0.310;2024-02-23T12:23:52;0.20;;;0.20;;
57565;SDS011;63999;43.882;-0.310;2024-02-23T12:26:20;0.10;;;0.10;;
57565;SDS011;63999;43.882;-0.310;2024-02-23T12:28:47;0.38;;;0.30;;
57565;SDS011;63999;43.882;-0.310;2024-02-23T12:31:15;0.52;;;0.28;;
57565;SDS011;63999;43.882;-0.310;2024-02-23T12:33:42;0.38;;;0.20;;
57565;SDS011;63999;43.882;-0.310;2024-02-23T12:38:42;0.45;;;0.20;;
57565;SDS011;63999;43.882;-0.310;2024-02-23T12:41:09;0.70;;;0.20;;
57565;SDS011;63999;43.882;-0.310;2024-02-23T12:43:40;0.57;;;0.20;;
57565;SDS011;63999;43.882;-0.310;2024-02-23T12:46:09;2.30;;;0.15;;
57565;SDS011;63999;43.882;-0.310;2024-02-23T12:48:40;0.20;;;0.20;;
57565;SDS011;63999;43.882;-0.310;2024-02-23T12:51:09;0.40;;;0.40;;
57565;SDS011;63999;43.882;-0.310;2024-02-23T12:53:37;3.00;;;0.30;;
57565;SDS011;63999;43.882;-0.310;2024-02-23T12:56:07;0.50;;;0.30;;
57565;SDS011;63999;43.882;-0.310;2024-02-23T12:58:35;0.20;;;0.20;;
57565;SDS011;63999;43.882;-0.310;2024-02-23T13:01:07;3.20;;;0.20;;
57565;SDS011;63999;43.882;-0.310;2024-02-23T13:03:35;0.77;;;0.22;;
57565;SDS011;63999;43.882;-0.310;2024-02-23T13:06:04;1.95;;;0.30;;
57565;SDS011;63999;43.882;-0.310;2024-02-23T13:08:32;1.00;;;0.40;;
57565;SDS011;63999;43.882;-0.310;2024-02-23T13:10:59;0.50;;;0.28;;
57565;SDS011;63999;43.882;-0.310;2024-02-23T13:13:27;2.22;;;0.20;;
57565;SDS011;63999;43.882;-0.310;2024-02-23T13:15:55;1.20;;;0.30;;
57565;SDS011;63999;43.882;-0.310;2024-02-23T13:18:23;0.98;;;0.20;;
57565;SDS011;63999;43.882;-0.310;2024-02-23T13:20:51;0.35;;;0.30;;
57565;SDS011;63999;43.882;-0.310;2024-02-23T13:23:18;0.30;;;0.20;;
57565;SDS011;63999;43.882;-0.310;2024-02-23T13:25:45;2.63;;;0.20;;
57565;SDS011;63999;43.882;-0.310;2024-02-23T13:28:13;0.68;;;0.28;;
57565;SDS011;63999;43.882;-0.310;2024-02-23T13:30:40;1.95;;;0.60;;
57565;SDS011;63999;43.882;-0.310;2024-02-23T13:33:07;0.25;;;0.20;;
57565;SDS011;63999;43.882;-0.310;2024-02-23T13:35:38;0.45;;;0.20;;
57565;SDS011;63999;43.882;-0.310;2024-02-23T13:38:07;0.30;;;0.10;;
57565;SDS011;63999;43.882;-0.310;2024-02-23T13:40:35;0.30;;;0.17;;
57565;SDS011;63999;43.882;-0.310;2024-02-23T13:43:03;0.10;;;0.10;;
57565;SDS011;63999;43.882;-0.310;2024-02-23T13:45:30;0.20;;;0.20;;
57565;SDS011;63999;43.882;-0.310;2024-02-23T13:48:02;0.22;;;0.20;;
57565;SDS011;63999;43.882;-0.310;2024-02-23T13:50:32;0.13;;;0.13;;
57565;SDS011;63999;43.882;-0.310;2024-02-23T13:53:06;0.17;;;0.15;;
57565;SDS011;63999;43.882;-0.310;2024-02-23T13:55:33;0.30;;;0.25;;
57565;SDS011;63999;43.882;-0.310;2024-02-23T13:58:00;0.28;;;0.22;;
57565;SDS011;63999;43.882;-0.310;2024-02-23T14:00:28;0.20;;;0.20;;
57565;SDS011;63999;43.882;-0.310;2024-02-23T14:02:55;1.90;;;0.50;;
57565;SDS011;63999;43.882;-0.310;2024-02-23T14:05:23;0.30;;;0.20;;
57565;SDS011;63999;43.882;-0.310;2024-02-23T14:07:51;1.35;;;0.25;;
57565;SDS011;63999;43.882;-0.310;2024-02-23T14:10:21;1.85;;;0.20;;
57565;SDS011;63999;43.882;-0.310;2024-02-23T14:12:49;0.75;;;0.30;;
57565;SDS011;63999;43.882;-0.310;2024-02-23T14:15:17;0.10;;;0.10;;
57565;SDS011;63999;43.882;-0.310;2024-02-23T14:17:44;0.15;;;0.10;;
57565;SDS011;63999;43.882;-0.310;2024-02-23T14:20:11;0.47;;;0.20;;
57565;SDS011;63999;43.882;-0.310;2024-02-23T14:22:39;0.25;;;0.22;;
57565;SDS011;63999;43.882;-0.310;2024-02-23T14:25:06;2.30;;;0.28;;
57565;SDS011;63999;43.882;-0.310;2024-02-23T14:27:34;6.05;;;0.35;;
57565;SDS011;63999;43.882;-0.310;2024-02-23T14:30:01;0.38;;;0.20;;
57565;SDS011;63999;43.882;-0.310;2024-02-23T14:32:28;0.40;;;0.30;;
57565;SDS011;63999;43.882;-0.310;2024-02-23T14:34:56;0.93;;;0.40;;
57565;SDS011;63999;43.882;-0.310;2024-02-23T14:37:24;0.22;;;0.20;;
57565;SDS011;63999;43.882;-0.310;2024-02-23T14:39:51;0.20;;;0.10;;
57565;SDS011;63999;43.882;-0.310;2024-02-23T14:42:18;0.10;;;0.10;;
57565;SDS011;63999;43.882;-0.310;2024-02-23T14:44:45;6.28;;;0.28;;